sensor_id;sensor_type;location;lat;lon;timestamp;noise_LAeq;noise_LA_min;noise_LA_max;noise_LA01;noise_LA95
77361;Laerm;66427;51.798;10.954;2023-07-31T00:01:53;30.08;28.04;34.47;;
77361;Laerm;66427;51.798;10.954;2023-07-31T00:04:18;28.27;27.32;31.38;;
77361;Laerm;66427;51.798;10.954;2023-07-31T00:06:43;30.44;27.71;39.32;;
77361;Laerm;66427;51.798;10.954;2023-07-31T00:09:09;46.41;27.23;62.21;;
77361;Laerm;66427;51.798;10.954;2023-07-31T00:11:34;32.78;27.37;50.90;;
77361;Laerm;66427;51.798;10.954;2023-07-31T00:14:00;37.96;27.48;58.19;;
77361;Laerm;66427;51.798;10.954;2023-07-31T00:16:25;27.99;27.14;34.21;;
77361;Laerm;66427;51.798;10.954;2023-07-31T00:18:50;28.76;27.29;40.63;;
77361;Laerm;66427;51.798;10.954;2023-07-31T00:21:16;28.54;27.52;30.15;;
77361;Laerm;66427;51.798;10.954;2023-07-31T00:23:41;30.18;27.18;44.87;;
77361;Laerm;66427;51.798;10.954;2023-07-31T00:26:06;28.65;27.34;33.73;;
77361;Laerm;66427;51.798;10.954;2023-07-31T00:28:32;29.41;27.53;35.51;;
77361;Laerm;66427;51.798;10.954;2023-07-31T00:30:57;28.97;27.73;34.10;;
77361;Laerm;66427;51.798;10.954;2023-07-31T00:33:23;29.15;28.04;36.93;;
77361;Laerm;66427;51.798;10.954;2023-07-31T00:35:48;31.04;27.57;43.66;;
77361;Laerm;66427;51.798;10.954;2023-07-31T00:38:14;44.63;32.23;54.67;;
77361;Laerm;66427;51.798;10.954;2023-07-31T00:40:39;45.36;33.99;55.05;;
77361;Laerm;66427;51.798;10.954;2023-07-31T00:43:04;36.09;31.16;42.38;;
77361;Laerm;66427;51.798;10.954;2023-07-31T00:45:30;39.69;33.61;50.29;;
77361;Laerm;66427;51.798;10.954;2023-07-31T00:47:55;36.70;30.81;42.90;;
77361;Laerm;66427;51.798;10.954;2023-07-31T00:50:24;35.56;30.88;42.03;;
77361;Laerm;66427;51.798;10.954;2023-07-31T00:52:50;49.13;32.10;65.35;;
77361;Laerm;66427;51.798;10.954;2023-07-31T00:55:15;40.33;34.18;46.15;;
77361;Laerm;66427;51.798;10.954;2023-07-31T00:57:41;40.90;35.76;45.51;;
77361;Laerm;66427;51.798;10.954;2023-07-31T01:00:07;42.22;34.88;49.86;;
77361;Laerm;66427;51.798;10.954;2023-07-31T01:02:32;47.32;38.40;56.05;;
77361;Laerm;66427;51.798;10.954;2023-07-31T01:04:58;45.89;39.34;52.08;;
77361;Laerm;66427;51.798;10.954;2023-07-31T01:12:38;47.01;38.96;56.79;;
77361;Laerm;66427;51.798;10.954;2023-07-31T01:15:07;49.59;39.28;59.38;;
77361;Laerm;66427;51.798;10.954;2023-07-31T01:17:36;46.63;40.24;55.18;;
77361;Laerm;66427;51.798;10.954;2023-07-31T01:20:02;50.47;40.38;61.36;;
77361;Laerm;66427;51.798;10.954;2023-07-31T01:22:39;47.97;40.17;55.21;;
77361;Laerm;66427;51.798;10.954;2023-07-31T01:27:51;48.93;39.76;55.14;;
77361;Laerm;66427;51.798;10.954;2023-07-31T01:30:20;45.34;38.16;51.38;;
77361;Laerm;66427;51.798;10.954;2023-07-31T01:32:47;43.47;37.84;49.93;;
77361;Laerm;66427;51.798;10.954;2023-07-31T01:35:13;40.16;34.98;48.26;;
77361;Laerm;66427;51.798;10.954;2023-07-31T01:37:39;43.01;36.41;51.88;;
77361;Laerm;66427;51.798;10.954;2023-07-31T01:40:04;42.52;34.29;52.78;;
77361;Laerm;66427;51.798;10.954;2023-07-31T01:42:30;36.79;32.47;40.63;;
77361;Laerm;66427;51.798;10.954;2023-07-31T01:44:55;42.13;35.55;48.87;;
77361;Laerm;66427;51.798;10.954;2023-07-31T01:47:21;43.47;34.46;49.98;;
77361;Laerm;66427;51.798;10.954;2023-07-31T01:49:46;43.10;34.93;57.30;;
77361;Laerm;66427;51.798;10.954;2023-07-31T01:52:11;39.81;34.04;46.29;;
77361;Laerm;66427;51.798;10.954;2023-07-31T01:54:37;50.97;31.67;67.70;;
77361;Laerm;66427;51.798;10.954;2023-07-31T01:57:02;36.72;32.06;42.59;;
77361;Laerm;66427;51.798;10.954;2023-07-31T01:59:28;35.10;32.01;40.15;;
77361;Laerm;66427;51.798;10.954;2023-07-31T02:01:54;50.26;33.03;67.20;;
77361;Laerm;66427;51.798;10.954;2023-07-31T02:04:19;39.26;34.65;43.20;;
77361;Laerm;66427;51.798;10.954;2023-07-31T02:06:44;46.62;34.94;60.96;;
77361;Laerm;66427;51.798;10.954;2023-07-31T02:09:10;35.72;32.13;40.16;;
77361;Laerm;66427;51.798;10.954;2023-07-31T02:11:35;40.18;32.63;54.31;;
77361;Laerm;66427;51.798;10.954;2023-07-31T02:14:00;37.65;34.06;46.56;;
77361;Laerm;66427;51.798;10.954;2023-07-31T02:16:26;40.17;34.59;45.52;;
77361;Laerm;66427;51.798;10.954;2023-07-31T02:18:51;38.92;32.76;45.85;;
77361;Laerm;66427;51.798;10.954;2023-07-31T02:21:17;36.31;31.68;41.38;;
77361;Laerm;66427;51.798;10.954;2023-07-31T02:23:42;39.68;30.66;50.96;;
77361;Laerm;66427;51.798;10.954;2023-07-31T02:26:07;37.45;32.39;53.67;;
77361;Laerm;66427;51.798;10.954;2023-07-31T02:28:33;38.90;33.24;44.81;;
77361;Laerm;66427;51.798;10.954;2023-07-31T02:30:58;37.45;32.12;48.28;;
77361;Laerm;66427;51.798;10.954;2023-07-31T02:33:23;40.30;34.06;46.50;;
77361;Laerm;66427;51.798;10.954;2023-07-31T02:35:49;38.42;33.34;44.34;;
77361;Laerm;66427;51.798;10.954;2023-07-31T02:38:14;37.71;34.05;44.51;;
77361;Laerm;66427;51.798;10.954;2023-07-31T02:40:40;42.20;36.91;48.37;;
77361;Laerm;66427;51.798;10.954;2023-07-31T02:43:06;42.77;36.19;50.83;;
77361;Laerm;66427;51.798;10.954;2023-07-31T02:45:32;50.23;35.52;67.77;;
77361;Laerm;66427;51.798;10.954;2023-07-31T02:47:57;43.12;34.11;53.45;;
77361;Laerm;66427;51.798;10.954;2023-07-31T02:50:22;43.22;36.81;50.06;;
77361;Laerm;66427;51.798;10.954;2023-07-31T02:52:48;40.78;36.34;47.22;;
77361;Laerm;66427;51.798;10.954;2023-07-31T02:55:13;40.92;33.45;49.20;;
77361;Laerm;66427;51.798;10.954;2023-07-31T02:57:38;44.72;34.58;59.80;;
77361;Laerm;66427;51.798;10.954;2023-07-31T03:00:04;38.63;34.31;46.81;;
77361;Laerm;66427;51.798;10.954;2023-07-31T03:02:31;39.30;34.56;51.88;;
77361;Laerm;66427;51.798;10.954;2023-07-31T03:04:57;50.93;36.83;66.28;;
77361;Laerm;66427;51.798;10.954;2023-07-31T03:07:22;43.55;36.74;50.24;;
77361;Laerm;66427;51.798;10.954;2023-07-31T03:09:47;45.11;37.21;51.42;;
77361;Laerm;66427;51.798;10.954;2023-07-31T03:12:13;40.43;35.84;47.69;;
77361;Laerm;66427;51.798;10.954;2023-07-31T03:14:38;43.71;37.74;50.10;;
77361;Laerm;66427;51.798;10.954;2023-07-31T03:17:04;53.47;36.89;69.96;;
77361;Laerm;66427;51.798;10.954;2023-07-31T03:19:32;51.43;37.15;67.08;;
77361;Laerm;66427;51.798;10.954;2023-07-31T03:21:58;53.35;37.46;68.04;;
77361;Laerm;66427;51.798;10.954;2023-07-31T03:24:23;42.76;37.59;47.87;;
77361;Laerm;66427;51.798;10.954;2023-07-31T03:26:49;45.57;36.06;58.92;;
77361;Laerm;66427;51.798;10.954;2023-07-31T03:29:14;43.45;37.23;51.73;;
77361;Laerm;66427;51.798;10.954;2023-07-31T03:31:39;52.04;37.16;67.84;;
77361;Laerm;66427;51.798;10.954;2023-07-31T03:34:05;39.43;35.83;46.98;;
77361;Laerm;66427;51.798;10.954;2023-07-31T03:36:30;44.43;36.26;54.58;;
77361;Laerm;66427;51.798;10.954;2023-07-31T03:38:55;45.90;36.03;60.10;;
77361;Laerm;66427;51.798;10.954;2023-07-31T03:41:21;42.94;36.87;52.95;;
77361;Laerm;66427;51.798;10.954;2023-07-31T03:43:50;48.24;35.88;64.27;;
77361;Laerm;66427;51.798;10.954;2023-07-31T03:46:17;51.60;35.37;67.42;;
77361;Laerm;66427;51.798;10.954;2023-07-31T03:48:42;50.13;33.91;65.09;;
77361;Laerm;66427;51.798;10.954;2023-07-31T03:51:08;45.26;35.10;60.98;;
77361;Laerm;66427;51.798;10.954;2023-07-31T03:53:33;39.60;34.26;51.78;;
77361;Laerm;66427;51.798;10.954;2023-07-31T03:55:59;55.01;34.66;71.76;;
77361;Laerm;66427;51.798;10.954;2023-07-31T03:58:24;52.86;36.86;68.71;;
77361;Laerm;66427;51.798;10.954;2023-07-31T04:00:49;53.02;33.79;69.27;;
77361;Laerm;66427;51.798;10.954;2023-07-31T04:03:15;50.39;36.28;65.08;;
77361;Laerm;66427;51.798;10.954;2023-07-31T04:05:40;51.47;36.87;64.14;;
77361;Laerm;66427;51.798;10.954;2023-07-31T04:08:05;38.15;34.65;43.16;;
77361;Laerm;66427;51.798;10.954;2023-07-31T04:10:31;49.32;35.41;65.19;;
77361;Laerm;66427;51.798;10.954;2023-07-31T04:12:58;48.09;35.93;62.70;;
77361;Laerm;66427;51.798;10.954;2023-07-31T04:15:23;53.12;35.15;67.65;;
77361;Laerm;66427;51.798;10.954;2023-07-31T04:17:49;52.90;38.26;67.27;;
77361;Laerm;66427;51.798;10.954;2023-07-31T04:20:14;55.86;38.67;71.54;;
77361;Laerm;66427;51.798;10.954;2023-07-31T04:22:40;44.07;37.91;52.23;;
77361;Laerm;66427;51.798;10.954;2023-07-31T04:25:05;41.26;36.87;50.32;;
77361;Laerm;66427;51.798;10.954;2023-07-31T04:27:31;53.60;38.55;67.33;;
77361;Laerm;66427;51.798;10.954;2023-07-31T04:29:56;54.89;37.13;69.01;;
77361;Laerm;66427;51.798;10.954;2023-07-31T04:32:21;51.95;36.19;67.43;;
77361;Laerm;66427;51.798;10.954;2023-07-31T04:34:47;59.48;38.18;75.03;;
77361;Laerm;66427;51.798;10.954;2023-07-31T04:37:12;60.74;36.88;81.00;;
77361;Laerm;66427;51.798;10.954;2023-07-31T04:39:39;56.78;41.23;71.57;;
77361;Laerm;66427;51.798;10.954;2023-07-31T04:42:04;52.39;37.59;64.81;;
77361;Laerm;66427;51.798;10.954;2023-07-31T04:44:30;50.97;36.97;65.76;;
77361;Laerm;66427;51.798;10.954;2023-07-31T04:46:55;49.19;37.90;63.57;;
77361;Laerm;66427;51.798;10.954;2023-07-31T04:49:20;48.68;37.17;64.29;;
77361;Laerm;66427;51.798;10.954;2023-07-31T04:51:46;50.26;37.16;65.88;;
77361;Laerm;66427;51.798;10.954;2023-07-31T04:54:11;56.97;37.29;71.96;;
77361;Laerm;66427;51.798;10.954;2023-07-31T04:56:40;55.55;39.08;69.92;;
77361;Laerm;66427;51.798;10.954;2023-07-31T04:59:05;55.51;37.13;68.94;;
77361;Laerm;66427;51.798;10.954;2023-07-31T05:01:30;52.30;40.65;64.22;;
77361;Laerm;66427;51.798;10.954;2023-07-31T05:03:56;54.44;40.68;69.07;;
77361;Laerm;66427;51.798;10.954;2023-07-31T05:06:21;54.57;40.51;68.05;;
77361;Laerm;66427;51.798;10.954;2023-07-31T05:08:46;56.08;40.49;69.93;;
77361;Laerm;66427;51.798;10.954;2023-07-31T05:11:12;53.73;38.91;69.08;;
77361;Laerm;66427;51.798;10.954;2023-07-31T05:13:37;55.74;37.54;67.20;;
77361;Laerm;66427;51.798;10.954;2023-07-31T05:16:03;41.65;37.85;48.20;;
77361;Laerm;66427;51.798;10.954;2023-07-31T05:18:28;50.28;37.66;64.57;;
77361;Laerm;66427;51.798;10.954;2023-07-31T05:20:54;51.00;37.15;68.06;;
77361;Laerm;66427;51.798;10.954;2023-07-31T05:23:19;49.18;37.00;64.76;;
77361;Laerm;66427;51.798;10.954;2023-07-31T05:25:44;61.71;39.58;78.48;;
77361;Laerm;66427;51.798;10.954;2023-07-31T05:28:11;59.45;36.59;69.34;;
77361;Laerm;66427;51.798;10.954;2023-07-31T05:30:36;59.35;36.79;72.22;;
77361;Laerm;66427;51.798;10.954;2023-07-31T05:33:01;45.39;35.21;66.99;;
77361;Laerm;66427;51.798;10.954;2023-07-31T05:35:27;56.87;35.73;73.72;;
77361;Laerm;66427;51.798;10.954;2023-07-31T05:37:52;56.86;39.41;69.61;;
77361;Laerm;66427;51.798;10.954;2023-07-31T05:40:18;53.02;36.37;65.98;;
77361;Laerm;66427;51.798;10.954;2023-07-31T05:42:43;51.61;35.31;65.94;;
77361;Laerm;66427;51.798;10.954;2023-07-31T05:45:08;54.68;35.59;68.18;;
77361;Laerm;66427;51.798;10.954;2023-07-31T05:47:34;38.71;35.98;47.60;;
77361;Laerm;66427;51.798;10.954;2023-07-31T05:49:59;57.75;35.73;69.33;;
77361;Laerm;66427;51.798;10.954;2023-07-31T05:52:25;51.03;35.98;64.67;;
77361;Laerm;66427;51.798;10.954;2023-07-31T05:54:50;61.21;37.92;76.46;;
77361;Laerm;66427;51.798;10.954;2023-07-31T05:57:16;56.17;35.88;69.57;;
77361;Laerm;66427;51.798;10.954;2023-07-31T05:59:42;40.83;36.85;52.78;;
77361;Laerm;66427;51.798;10.954;2023-07-31T06:02:07;55.05;38.78;65.12;;
77361;Laerm;66427;51.798;10.954;2023-07-31T06:04:33;54.79;36.69;69.46;;
77361;Laerm;66427;51.798;10.954;2023-07-31T06:06:58;55.83;37.03;72.34;;
77361;Laerm;66427;51.798;10.954;2023-07-31T06:09:23;51.05;35.55;66.94;;
77361;Laerm;66427;51.798;10.954;2023-07-31T06:11:50;58.01;36.32;73.53;;
77361;Laerm;66427;51.798;10.954;2023-07-31T06:14:15;46.97;34.65;61.36;;
77361;Laerm;66427;51.798;10.954;2023-07-31T06:16:41;54.85;38.70;67.31;;
77361;Laerm;66427;51.798;10.954;2023-07-31T06:19:06;38.57;34.89;47.35;;
77361;Laerm;66427;51.798;10.954;2023-07-31T06:21:32;57.23;35.90;72.03;;
77361;Laerm;66427;51.798;10.954;2023-07-31T06:23:58;58.87;38.56;76.22;;
77361;Laerm;66427;51.798;10.954;2023-07-31T06:26:23;52.43;35.39;67.43;;
77361;Laerm;66427;51.798;10.954;2023-07-31T06:28:48;40.98;34.88;54.96;;
77361;Laerm;66427;51.798;10.954;2023-07-31T06:31:14;55.97;37.44;67.86;;
77361;Laerm;66427;51.798;10.954;2023-07-31T06:33:39;38.42;35.20;49.07;;
77361;Laerm;66427;51.798;10.954;2023-07-31T06:36:05;52.68;34.93;69.10;;
77361;Laerm;66427;51.798;10.954;2023-07-31T06:38:31;55.96;36.02;66.70;;
77361;Laerm;66427;51.798;10.954;2023-07-31T06:40:57;52.77;38.78;67.03;;
77361;Laerm;66427;51.798;10.954;2023-07-31T06:43:22;51.64;40.95;62.04;;
77361;Laerm;66427;51.798;10.954;2023-07-31T06:45:48;50.07;37.53;65.23;;
77361;Laerm;66427;51.798;10.954;2023-07-31T06:48:16;53.71;37.12;64.94;;
77361;Laerm;66427;51.798;10.954;2023-07-31T06:50:41;61.77;37.61;76.79;;
77361;Laerm;66427;51.798;10.954;2023-07-31T06:53:07;57.20;38.61;68.76;;
77361;Laerm;66427;51.798;10.954;2023-07-31T06:55:32;59.83;39.70;76.60;;
77361;Laerm;66427;51.798;10.954;2023-07-31T06:57:58;57.34;36.85;73.36;;
77361;Laerm;66427;51.798;10.954;2023-07-31T07:00:23;55.86;36.42;70.75;;
77361;Laerm;66427;51.798;10.954;2023-07-31T07:02:49;55.69;37.09;70.56;;
77361;Laerm;66427;51.798;10.954;2023-07-31T07:05:15;51.21;36.60;67.18;;
77361;Laerm;66427;51.798;10.954;2023-07-31T07:07:41;51.90;37.65;66.01;;
77361;Laerm;66427;51.798;10.954;2023-07-31T07:10:06;52.93;35.49;67.86;;
77361;Laerm;66427;51.798;10.954;2023-07-31T07:12:32;49.03;35.98;61.38;;
77361;Laerm;66427;51.798;10.954;2023-07-31T07:14:58;59.47;37.95;76.06;;
77361;Laerm;66427;51.798;10.954;2023-07-31T07:17:24;55.48;38.22;68.90;;
77361;Laerm;66427;51.798;10.954;2023-07-31T07:19:49;52.67;38.90;66.68;;
77361;Laerm;66427;51.798;10.954;2023-07-31T07:22:14;50.96;37.72;63.62;;
77361;Laerm;66427;51.798;10.954;2023-07-31T07:24:41;53.90;38.44;65.38;;
77361;Laerm;66427;51.798;10.954;2023-07-31T07:27:06;55.26;37.95;71.90;;
77361;Laerm;66427;51.798;10.954;2023-07-31T07:29:33;56.54;39.24;67.56;;
77361;Laerm;66427;51.798;10.954;2023-07-31T07:31:59;52.91;38.97;65.93;;
77361;Laerm;66427;51.798;10.954;2023-07-31T07:34:27;57.49;39.73;68.80;;
77361;Laerm;66427;51.798;10.954;2023-07-31T07:36:53;54.27;43.13;64.25;;
77361;Laerm;66427;51.798;10.954;2023-07-31T07:39:19;52.48;39.20;63.00;;
77361;Laerm;66427;51.798;10.954;2023-07-31T07:41:45;51.00;39.53;65.21;;
77361;Laerm;66427;51.798;10.954;2023-07-31T07:44:10;55.17;37.93;70.05;;
77361;Laerm;66427;51.798;10.954;2023-07-31T07:46:36;51.83;38.70;63.29;;
77361;Laerm;66427;51.798;10.954;2023-07-31T07:49:01;54.43;40.13;66.64;;
77361;Laerm;66427;51.798;10.954;2023-07-31T07:51:27;56.01;38.60;70.41;;
77361;Laerm;66427;51.798;10.954;2023-07-31T07:53:52;54.45;36.05;66.97;;
77361;Laerm;66427;51.798;10.954;2023-07-31T07:56:18;55.40;35.80;66.25;;
77361;Laerm;66427;51.798;10.954;2023-07-31T07:58:43;54.11;36.74;68.27;;
77361;Laerm;66427;51.798;10.954;2023-07-31T08:01:08;54.38;37.12;68.48;;
77361;Laerm;66427;51.798;10.954;2023-07-31T08:03:34;55.71;36.06;69.51;;
77361;Laerm;66427;51.798;10.954;2023-07-31T08:05:59;52.09;38.56;66.48;;
77361;Laerm;66427;51.798;10.954;2023-07-31T08:08:25;53.62;38.62;68.53;;
77361;Laerm;66427;51.798;10.954;2023-07-31T08:10:50;57.91;42.88;73.33;;
77361;Laerm;66427;51.798;10.954;2023-07-31T08:13:16;54.08;43.87;64.32;;
77361;Laerm;66427;51.798;10.954;2023-07-31T08:15:41;55.40;43.15;67.41;;
77361;Laerm;66427;51.798;10.954;2023-07-31T08:18:07;56.48;41.45;70.29;;
77361;Laerm;66427;51.798;10.954;2023-07-31T08:20:33;55.33;41.22;66.07;;
77361;Laerm;66427;51.798;10.954;2023-07-31T08:22:58;53.19;44.07;66.91;;
77361;Laerm;66427;51.798;10.954;2023-07-31T08:25:24;62.40;45.57;76.93;;
77361;Laerm;66427;51.798;10.954;2023-07-31T08:27:50;54.05;44.21;68.01;;
77361;Laerm;66427;51.798;10.954;2023-07-31T08:30:17;51.88;43.19;67.28;;
77361;Laerm;66427;51.798;10.954;2023-07-31T08:32:43;59.94;46.54;72.78;;
77361;Laerm;66427;51.798;10.954;2023-07-31T08:35:08;57.68;44.65;69.81;;
77361;Laerm;66427;51.798;10.954;2023-07-31T08:37:33;56.08;46.43;63.59;;
77361;Laerm;66427;51.798;10.954;2023-07-31T08:39:59;57.23;41.64;65.94;;
77361;Laerm;66427;51.798;10.954;2023-07-31T08:42:24;55.78;41.29;67.17;;
77361;Laerm;66427;51.798;10.954;2023-07-31T08:44:50;55.64;44.70;65.46;;
77361;Laerm;66427;51.798;10.954;2023-07-31T08:47:16;54.86;43.78;65.55;;
77361;Laerm;66427;51.798;10.954;2023-07-31T08:49:41;57.74;43.26;74.82;;
77361;Laerm;66427;51.798;10.954;2023-07-31T08:52:07;53.93;44.37;67.37;;
77361;Laerm;66427;51.798;10.954;2023-07-31T08:54:32;56.20;42.07;69.00;;
77361;Laerm;66427;51.798;10.954;2023-07-31T08:56:58;56.00;45.20;67.97;;
77361;Laerm;66427;51.798;10.954;2023-07-31T08:59:25;57.19;48.00;67.93;;
77361;Laerm;66427;51.798;10.954;2023-07-31T09:01:53;56.76;44.52;67.42;;
77361;Laerm;66427;51.798;10.954;2023-07-31T09:04:20;54.03;45.45;63.87;;
77361;Laerm;66427;51.798;10.954;2023-07-31T09:06:46;55.10;45.87;66.60;;
77361;Laerm;66427;51.798;10.954;2023-07-31T09:09:13;57.08;44.75;66.71;;
77361;Laerm;66427;51.798;10.954;2023-07-31T09:11:38;51.86;40.26;63.60;;
77361;Laerm;66427;51.798;10.954;2023-07-31T09:14:04;56.01;45.53;70.31;;
77361;Laerm;66427;51.798;10.954;2023-07-31T09:16:34;58.33;48.84;72.18;;
77361;Laerm;66427;51.798;10.954;2023-07-31T09:18:59;58.87;48.83;71.35;;
77361;Laerm;66427;51.798;10.954;2023-07-31T09:21:26;60.03;48.34;69.42;;
77361;Laerm;66427;51.798;10.954;2023-07-31T09:23:53;58.04;45.42;72.22;;
77361;Laerm;66427;51.798;10.954;2023-07-31T09:26:29;59.18;46.42;71.57;;
77361;Laerm;66427;51.798;10.954;2023-07-31T09:28:55;56.81;45.14;69.06;;
77361;Laerm;66427;51.798;10.954;2023-07-31T09:31:31;55.60;38.94;66.65;;
77361;Laerm;66427;51.798;10.954;2023-07-31T09:33:56;55.78;38.34;72.03;;
77361;Laerm;66427;51.798;10.954;2023-07-31T09:36:22;57.59;46.25;71.39;;
77361;Laerm;66427;51.798;10.954;2023-07-31T09:38:47;55.95;48.47;67.26;;
77361;Laerm;66427;51.798;10.954;2023-07-31T09:41:13;58.46;49.38;67.19;;
77361;Laerm;66427;51.798;10.954;2023-07-31T09:43:39;58.05;48.75;69.59;;
77361;Laerm;66427;51.798;10.954;2023-07-31T09:46:04;57.88;48.52;71.48;;
77361;Laerm;66427;51.798;10.954;2023-07-31T09:48:38;56.98;44.63;68.25;;
77361;Laerm;66427;51.798;10.954;2023-07-31T09:51:04;60.12;46.60;70.54;;
77361;Laerm;66427;51.798;10.954;2023-07-31T09:53:30;58.15;51.72;66.54;;
77361;Laerm;66427;51.798;10.954;2023-07-31T09:55:55;57.83;51.55;63.37;;
77361;Laerm;66427;51.798;10.954;2023-07-31T09:58:23;58.24;53.07;67.18;;
77361;Laerm;66427;51.798;10.954;2023-07-31T10:00:48;60.59;53.84;70.23;;
77361;Laerm;66427;51.798;10.954;2023-07-31T10:03:14;59.79;50.06;68.53;;
77361;Laerm;66427;51.798;10.954;2023-07-31T10:05:42;62.88;52.20;76.63;;
77361;Laerm;66427;51.798;10.954;2023-07-31T10:08:11;59.57;44.04;70.80;;
77361;Laerm;66427;51.798;10.954;2023-07-31T10:10:42;58.30;51.43;66.53;;
77361;Laerm;66427;51.798;10.954;2023-07-31T10:13:08;61.60;55.84;69.00;;
77361;Laerm;66427;51.798;10.954;2023-07-31T10:15:35;62.67;56.14;70.14;;
77361;Laerm;66427;51.798;10.954;2023-07-31T10:18:05;62.59;50.97;69.47;;
77361;Laerm;66427;51.798;10.954;2023-07-31T10:20:31;56.05;39.12;70.29;;
77361;Laerm;66427;51.798;10.954;2023-07-31T10:22:56;57.33;36.53;72.17;;
77361;Laerm;66427;51.798;10.954;2023-07-31T10:25:22;57.30;37.54;69.04;;
77361;Laerm;66427;51.798;10.954;2023-07-31T10:27:51;52.27;37.92;64.76;;
77361;Laerm;66427;51.798;10.954;2023-07-31T10:30:18;57.25;39.24;67.81;;
77361;Laerm;66427;51.798;10.954;2023-07-31T10:32:44;54.12;37.65;65.81;;
77361;Laerm;66427;51.798;10.954;2023-07-31T10:35:10;53.32;36.11;67.56;;
77361;Laerm;66427;51.798;10.954;2023-07-31T10:37:37;61.09;40.25;73.71;;
77361;Laerm;66427;51.798;10.954;2023-07-31T10:40:03;57.43;36.03;72.52;;
77361;Laerm;66427;51.798;10.954;2023-07-31T10:42:36;58.09;36.47;69.54;;
77361;Laerm;66427;51.798;10.954;2023-07-31T10:45:06;55.56;37.56;67.09;;
77361;Laerm;66427;51.798;10.954;2023-07-31T10:48:05;52.81;37.40;69.16;;
77361;Laerm;66427;51.798;10.954;2023-07-31T10:50:26;52.30;37.50;66.39;;
77361;Laerm;66427;51.798;10.954;2023-07-31T10:52:52;60.70;37.78;76.01;;
77361;Laerm;66427;51.798;10.954;2023-07-31T10:57:54;60.34;41.12;75.68;;
77361;Laerm;66427;51.798;10.954;2023-07-31T11:00:27;56.55;42.13;65.80;;
77361;Laerm;66427;51.798;10.954;2023-07-31T11:03:27;58.70;43.83;67.60;;
77361;Laerm;66427;51.798;10.954;2023-07-31T11:06:03;55.50;43.22;64.46;;
77361;Laerm;66427;51.798;10.954;2023-07-31T11:08:32;57.89;45.88;72.43;;
77361;Laerm;66427;51.798;10.954;2023-07-31T11:13:26;57.33;44.34;65.80;;
77361;Laerm;66427;51.798;10.954;2023-07-31T11:15:53;58.13;44.06;65.36;;
77361;Laerm;66427;51.798;10.954;2023-07-31T11:18:18;59.01;45.62;65.34;;
77361;Laerm;66427;51.798;10.954;2023-07-31T11:20:46;64.73;57.28;75.94;;
77361;Laerm;66427;51.798;10.954;2023-07-31T11:23:12;58.97;49.88;67.70;;
77361;Laerm;66427;51.798;10.954;2023-07-31T11:25:39;60.06;45.95;69.87;;
77361;Laerm;66427;51.798;10.954;2023-07-31T11:28:11;57.43;47.68;67.17;;
77361;Laerm;66427;51.798;10.954;2023-07-31T11:30:37;60.71;46.08;70.56;;
77361;Laerm;66427;51.798;10.954;2023-07-31T11:33:03;63.28;47.16;77.29;;
77361;Laerm;66427;51.798;10.954;2023-07-31T11:35:32;58.67;45.50;68.64;;
77361;Laerm;66427;51.798;10.954;2023-07-31T11:38:00;59.82;44.90;73.55;;
77361;Laerm;66427;51.798;10.954;2023-07-31T11:40:26;57.54;48.13;64.80;;
77361;Laerm;66427;51.798;10.954;2023-07-31T11:42:57;58.86;49.40;68.95;;
77361;Laerm;66427;51.798;10.954;2023-07-31T11:45:26;57.15;44.92;68.52;;
77361;Laerm;66427;51.798;10.954;2023-07-31T11:47:55;57.60;48.31;67.59;;
77361;Laerm;66427;51.798;10.954;2023-07-31T11:50:21;62.40;49.72;75.36;;
77361;Laerm;66427;51.798;10.954;2023-07-31T11:52:49;59.75;46.81;73.56;;
77361;Laerm;66427;51.798;10.954;2023-07-31T11:55:17;56.93;44.92;62.35;;
77361;Laerm;66427;51.798;10.954;2023-07-31T11:57:43;56.69;46.31;67.12;;
77361;Laerm;66427;51.798;10.954;2023-07-31T12:00:10;56.40;45.98;65.47;;
77361;Laerm;66427;51.798;10.954;2023-07-31T12:02:41;57.95;46.05;67.87;;
77361;Laerm;66427;51.798;10.954;2023-07-31T12:05:10;58.40;47.52;68.43;;
77361;Laerm;66427;51.798;10.954;2023-07-31T12:07:49;59.09;48.26;70.54;;
77361;Laerm;66427;51.798;10.954;2023-07-31T12:10:25;55.90;46.86;64.14;;
77361;Laerm;66427;51.798;10.954;2023-07-31T12:18:06;53.67;45.92;61.35;;
77361;Laerm;66427;51.798;10.954;2023-07-31T12:20:32;61.66;46.20;80.95;;
77361;Laerm;66427;51.798;10.954;2023-07-31T12:22:59;54.65;39.96;63.14;;
77361;Laerm;66427;51.798;10.954;2023-07-31T12:25:31;60.56;39.76;76.40;;
77361;Laerm;66427;51.798;10.954;2023-07-31T12:27:56;61.46;40.12;71.56;;
77361;Laerm;66427;51.798;10.954;2023-07-31T12:30:33;48.72;39.31;62.69;;
77361;Laerm;66427;51.798;10.954;2023-07-31T12:33:03;55.33;41.57;68.38;;
77361;Laerm;66427;51.798;10.954;2023-07-31T12:35:37;54.04;42.91;65.14;;
77361;Laerm;66427;51.798;10.954;2023-07-31T12:38:03;60.87;48.24;71.71;;
77361;Laerm;66427;51.798;10.954;2023-07-31T12:40:30;57.45;48.65;66.63;;
77361;Laerm;66427;51.798;10.954;2023-07-31T12:42:57;57.91;44.63;67.97;;
77361;Laerm;66427;51.798;10.954;2023-07-31T12:45:22;55.51;43.75;66.50;;
77361;Laerm;66427;51.798;10.954;2023-07-31T12:47:48;58.67;43.64;75.43;;
77361;Laerm;66427;51.798;10.954;2023-07-31T12:50:14;52.15;38.88;62.44;;
77361;Laerm;66427;51.798;10.954;2023-07-31T12:52:40;55.36;42.29;67.16;;
77361;Laerm;66427;51.798;10.954;2023-07-31T12:55:05;48.89;37.66;63.55;;
77361;Laerm;66427;51.798;10.954;2023-07-31T12:57:31;50.84;38.72;66.08;;
77361;Laerm;66427;51.798;10.954;2023-07-31T12:59:56;54.45;40.49;65.99;;
77361;Laerm;66427;51.798;10.954;2023-07-31T13:02:22;53.85;45.04;64.88;;
77361;Laerm;66427;51.798;10.954;2023-07-31T13:04:48;55.68;41.31;71.06;;
77361;Laerm;66427;51.798;10.954;2023-07-31T13:07:14;61.80;43.19;78.26;;
77361;Laerm;66427;51.798;10.954;2023-07-31T13:09:40;56.26;42.69;67.30;;
77361;Laerm;66427;51.798;10.954;2023-07-31T13:12:08;64.69;43.46;82.59;;
77361;Laerm;66427;51.798;10.954;2023-07-31T13:14:33;56.39;45.95;64.34;;
77361;Laerm;66427;51.798;10.954;2023-07-31T13:16:58;50.39;40.30;64.56;;
77361;Laerm;66427;51.798;10.954;2023-07-31T13:19:24;57.75;43.29;75.32;;
77361;Laerm;66427;51.798;10.954;2023-07-31T13:21:49;57.96;44.05;73.49;;
77361;Laerm;66427;51.798;10.954;2023-07-31T13:24:15;52.94;40.03;64.65;;
77361;Laerm;66427;51.798;10.954;2023-07-31T13:26:40;53.49;41.60;66.19;;
77361;Laerm;66427;51.798;10.954;2023-07-31T13:29:07;54.37;38.63;65.02;;
77361;Laerm;66427;51.798;10.954;2023-07-31T13:31:32;56.13;45.68;71.04;;
77361;Laerm;66427;51.798;10.954;2023-07-31T13:33:58;59.89;45.21;77.24;;
77361;Laerm;66427;51.798;10.954;2023-07-31T13:36:23;57.44;42.98;69.71;;
77361;Laerm;66427;51.798;10.954;2023-07-31T13:38:49;58.83;42.53;76.04;;
77361;Laerm;66427;51.798;10.954;2023-07-31T13:41:16;54.45;42.06;66.30;;
77361;Laerm;66427;51.798;10.954;2023-07-31T13:43:41;62.90;41.16;80.03;;
77361;Laerm;66427;51.798;10.954;2023-07-31T13:46:07;55.81;43.69;73.93;;